Airport View

Enter AWOS ICAO identifier for current METAR.

ex. KFNL

KXSA 181135Z AUTO 00000KT 7SM -SN SCT046 M02/M03 A3061 RMK AO2 P0001 T10161032

18 Jan 2020 11:49

Frequency: 125.775

Phone: 804-445-8724

Other Area AWOS: KFYJ - KW96 - KW75 - KOFP

TAF KRIC 180530Z 1806/1906 07004KT P6SM SCT160 BKN210 FM181200 14004KT P6SM OVC090 FM181800 18012KT P6SM OVC060 FM182000 19013G22KT 6SM -RA OVC030 FM190000 22010KT 6SM -RA OVC015